sensor_id;sensor_type;location;lat;lon;timestamp;pressure;altitude;pressure_sealevel;temperature
18782;BMP180;9519;51.890;8.970;2023-08-30T00:02:32;98801.00;;;12.90
18782;BMP180;9519;51.890;8.970;2023-08-30T00:07:34;98807.00;;;12.80
18782;BMP180;9519;51.890;8.970;2023-08-30T00:12:36;98799.00;;;12.70
18782;BMP180;9519;51.890;8.970;2023-08-30T00:17:39;98801.00;;;12.60
18782;BMP180;9519;51.890;8.970;2023-08-30T00:22:41;98796.00;;;12.60
18782;BMP180;9519;51.890;8.970;2023-08-30T00:27:43;98799.00;;;12.50
18782;BMP180;9519;51.890;8.970;2023-08-30T00:32:47;98797.00;;;12.40
18782;BMP180;9519;51.890;8.970;2023-08-30T00:37:49;98798.00;;;12.40
18782;BMP180;9519;51.890;8.970;2023-08-30T00:42:51;98795.00;;;12.40
18782;BMP180;9519;51.890;8.970;2023-08-30T00:47:54;98799.00;;;12.40
18782;BMP180;9519;51.890;8.970;2023-08-30T00:52:56;98796.00;;;12.30
18782;BMP180;9519;51.890;8.970;2023-08-30T00:57:59;98798.00;;;12.20
18782;BMP180;9519;51.890;8.970;2023-08-30T01:03:06;98794.00;;;12.20
18782;BMP180;9519;51.890;8.970;2023-08-30T01:08:09;98787.00;;;12.10
18782;BMP180;9519;51.890;8.970;2023-08-30T01:19:49;98783.00;;;12.00
18782;BMP180;9519;51.890;8.970;2023-08-30T01:25:10;98772.00;;;12.00
18782;BMP180;9519;51.890;8.970;2023-08-30T01:30:40;98781.00;;;12.00
18782;BMP180;9519;51.890;8.970;2023-08-30T01:35:48;98777.00;;;11.90
18782;BMP180;9519;51.890;8.970;2023-08-30T01:40:51;98780.00;;;11.90
18782;BMP180;9519;51.890;8.970;2023-08-30T01:45:58;98778.00;;;12.00
18782;BMP180;9519;51.890;8.970;2023-08-30T01:51:01;98771.00;;;12.00
18782;BMP180;9519;51.890;8.970;2023-08-30T01:56:03;98769.00;;;12.00
18782;BMP180;9519;51.890;8.970;2023-08-30T02:01:07;98765.00;;;11.90
18782;BMP180;9519;51.890;8.970;2023-08-30T02:06:17;98763.00;;;12.00
18782;BMP180;9519;51.890;8.970;2023-08-30T02:11:27;98761.00;;;12.00
18782;BMP180;9519;51.890;8.970;2023-08-30T02:16:31;98762.00;;;12.00
18782;BMP180;9519;51.890;8.970;2023-08-30T02:21:34;98762.00;;;12.00
18782;BMP180;9519;51.890;8.970;2023-08-30T02:26:36;98753.00;;;12.00
18782;BMP180;9519;51.890;8.970;2023-08-30T02:31:39;98756.00;;;12.00
18782;BMP180;9519;51.890;8.970;2023-08-30T02:36:41;98755.00;;;12.00
18782;BMP180;9519;51.890;8.970;2023-08-30T02:41:43;98749.00;;;12.00
18782;BMP180;9519;51.890;8.970;2023-08-30T02:46:47;98748.00;;;12.10
18782;BMP180;9519;51.890;8.970;2023-08-30T02:51:51;98746.00;;;12.10
18782;BMP180;9519;51.890;8.970;2023-08-30T02:56:54;98737.00;;;12.10
18782;BMP180;9519;51.890;8.970;2023-08-30T03:08:31;98731.00;;;12.20
18782;BMP180;9519;51.890;8.970;2023-08-30T03:13:33;98734.00;;;12.20
18782;BMP180;9519;51.890;8.970;2023-08-30T03:18:35;98730.00;;;12.30
18782;BMP180;9519;51.890;8.970;2023-08-30T03:23:39;98735.00;;;12.30
18782;BMP180;9519;51.890;8.970;2023-08-30T03:28:43;98731.00;;;12.30
18782;BMP180;9519;51.890;8.970;2023-08-30T03:33:46;98733.00;;;12.30
18782;BMP180;9519;51.890;8.970;2023-08-30T03:38:50;98729.00;;;12.30
18782;BMP180;9519;51.890;8.970;2023-08-30T03:43:52;98731.00;;;12.30
18782;BMP180;9519;51.890;8.970;2023-08-30T03:48:54;98724.00;;;12.30
18782;BMP180;9519;51.890;8.970;2023-08-30T03:53:58;98724.00;;;12.30
18782;BMP180;9519;51.890;8.970;2023-08-30T03:59:00;98714.00;;;12.40
18782;BMP180;9519;51.890;8.970;2023-08-30T04:04:02;98719.00;;;12.40
18782;BMP180;9519;51.890;8.970;2023-08-30T04:09:07;98717.00;;;12.30
18782;BMP180;9519;51.890;8.970;2023-08-30T04:14:11;98706.00;;;12.30
18782;BMP180;9519;51.890;8.970;2023-08-30T04:19:16;98697.00;;;12.30
18782;BMP180;9519;51.890;8.970;2023-08-30T04:24:23;98702.00;;;12.30
18782;BMP180;9519;51.890;8.970;2023-08-30T04:29:49;98697.00;;;12.40
18782;BMP180;9519;51.890;8.970;2023-08-30T04:34:51;98695.00;;;12.40
18782;BMP180;9519;51.890;8.970;2023-08-30T04:39:57;98694.00;;;12.40
18782;BMP180;9519;51.890;8.970;2023-08-30T04:45:00;98690.00;;;12.40
18782;BMP180;9519;51.890;8.970;2023-08-30T04:50:07;98683.00;;;12.40
18782;BMP180;9519;51.890;8.970;2023-08-30T04:55:12;98691.00;;;12.40
18782;BMP180;9519;51.890;8.970;2023-08-30T05:00:15;98688.00;;;12.40
18782;BMP180;9519;51.890;8.970;2023-08-30T05:05:17;98691.00;;;12.40
18782;BMP180;9519;51.890;8.970;2023-08-30T05:10:26;98701.00;;;12.40
18782;BMP180;9519;51.890;8.970;2023-08-30T05:15:28;98701.00;;;12.40
18782;BMP180;9519;51.890;8.970;2023-08-30T05:20:30;98699.00;;;12.50
18782;BMP180;9519;51.890;8.970;2023-08-30T05:25:33;98695.00;;;12.50
18782;BMP180;9519;51.890;8.970;2023-08-30T05:30:36;98689.00;;;12.50
18782;BMP180;9519;51.890;8.970;2023-08-30T05:35:38;98687.00;;;12.60
18782;BMP180;9519;51.890;8.970;2023-08-30T05:40:42;98689.00;;;12.60
18782;BMP180;9519;51.890;8.970;2023-08-30T05:45:45;98684.00;;;12.70
18782;BMP180;9519;51.890;8.970;2023-08-30T05:50:47;98675.00;;;12.70
18782;BMP180;9519;51.890;8.970;2023-08-30T05:55:51;98665.00;;;12.70
18782;BMP180;9519;51.890;8.970;2023-08-30T06:00:53;98665.00;;;12.80
18782;BMP180;9519;51.890;8.970;2023-08-30T06:05:58;98656.00;;;12.80
18782;BMP180;9519;51.890;8.970;2023-08-30T06:11:01;98671.00;;;12.90
18782;BMP180;9519;51.890;8.970;2023-08-30T06:16:03;98661.00;;;13.00
18782;BMP180;9519;51.890;8.970;2023-08-30T06:21:05;98645.00;;;13.10
18782;BMP180;9519;51.890;8.970;2023-08-30T06:26:09;98656.00;;;13.10
18782;BMP180;9519;51.890;8.970;2023-08-30T06:31:11;98643.00;;;13.20
18782;BMP180;9519;51.890;8.970;2023-08-30T06:36:14;98639.00;;;13.30
18782;BMP180;9519;51.890;8.970;2023-08-30T06:41:19;98641.00;;;13.40
18782;BMP180;9519;51.890;8.970;2023-08-30T06:46:21;98635.00;;;13.50
18782;BMP180;9519;51.890;8.970;2023-08-30T06:51:23;98642.00;;;13.60
18782;BMP180;9519;51.890;8.970;2023-08-30T06:56:26;98642.00;;;13.80
18782;BMP180;9519;51.890;8.970;2023-08-30T07:01:29;98642.00;;;13.90
18782;BMP180;9519;51.890;8.970;2023-08-30T07:06:31;98632.00;;;14.10
18782;BMP180;9519;51.890;8.970;2023-08-30T07:11:35;98643.00;;;14.30
18782;BMP180;9519;51.890;8.970;2023-08-30T07:16:40;98631.00;;;14.50
18782;BMP180;9519;51.890;8.970;2023-08-30T07:21:42;98627.00;;;14.70
18782;BMP180;9519;51.890;8.970;2023-08-30T07:26:45;98616.00;;;14.90
18782;BMP180;9519;51.890;8.970;2023-08-30T07:31:48;98611.00;;;15.00
18782;BMP180;9519;51.890;8.970;2023-08-30T07:36:54;98596.00;;;15.20
18782;BMP180;9519;51.890;8.970;2023-08-30T07:41:58;98596.00;;;15.30
18782;BMP180;9519;51.890;8.970;2023-08-30T07:47:00;98589.00;;;15.40
18782;BMP180;9519;51.890;8.970;2023-08-30T07:52:04;98595.00;;;15.50
18782;BMP180;9519;51.890;8.970;2023-08-30T07:57:10;98597.00;;;15.60
18782;BMP180;9519;51.890;8.970;2023-08-30T08:02:12;98594.00;;;15.80
18782;BMP180;9519;51.890;8.970;2023-08-30T08:07:14;98576.00;;;15.90
18782;BMP180;9519;51.890;8.970;2023-08-30T08:12:17;98573.00;;;16.00
18782;BMP180;9519;51.890;8.970;2023-08-30T08:17:19;98566.00;;;16.10
18782;BMP180;9519;51.890;8.970;2023-08-30T08:22:22;98569.00;;;16.20
18782;BMP180;9519;51.890;8.970;2023-08-30T08:27:26;98581.00;;;16.30
18782;BMP180;9519;51.890;8.970;2023-08-30T08:32:31;98575.00;;;16.40
18782;BMP180;9519;51.890;8.970;2023-08-30T08:37:34;98568.00;;;16.50
18782;BMP180;9519;51.890;8.970;2023-08-30T08:42:37;98563.00;;;16.70
18782;BMP180;9519;51.890;8.970;2023-08-30T08:47:40;98563.00;;;16.80
18782;BMP180;9519;51.890;8.970;2023-08-30T08:52:42;98559.00;;;17.00
18782;BMP180;9519;51.890;8.970;2023-08-30T08:57:48;98556.00;;;17.10
18782;BMP180;9519;51.890;8.970;2023-08-30T09:02:51;98560.00;;;17.20
18782;BMP180;9519;51.890;8.970;2023-08-30T09:07:55;98560.00;;;17.30
18782;BMP180;9519;51.890;8.970;2023-08-30T09:12:58;98559.00;;;17.40
18782;BMP180;9519;51.890;8.970;2023-08-30T09:18:01;98557.00;;;17.50
18782;BMP180;9519;51.890;8.970;2023-08-30T09:23:03;98562.00;;;17.50
18782;BMP180;9519;51.890;8.970;2023-08-30T09:28:07;98547.00;;;17.60
18782;BMP180;9519;51.890;8.970;2023-08-30T09:33:09;98544.00;;;17.70
18782;BMP180;9519;51.890;8.970;2023-08-30T09:38:17;98547.00;;;17.90
18782;BMP180;9519;51.890;8.970;2023-08-30T09:43:21;98531.00;;;18.00
18782;BMP180;9519;51.890;8.970;2023-08-30T09:48:28;98539.00;;;18.20
18782;BMP180;9519;51.890;8.970;2023-08-30T09:53:42;98517.00;;;18.30
18782;BMP180;9519;51.890;8.970;2023-08-30T09:58:50;98526.00;;;18.30
18782;BMP180;9519;51.890;8.970;2023-08-30T10:03:53;98519.00;;;18.40
18782;BMP180;9519;51.890;8.970;2023-08-30T10:08:58;98510.00;;;18.50
18782;BMP180;9519;51.890;8.970;2023-08-30T10:14:03;98527.00;;;18.50
18782;BMP180;9519;51.890;8.970;2023-08-30T10:19:10;98505.00;;;18.60
18782;BMP180;9519;51.890;8.970;2023-08-30T10:24:18;98519.00;;;18.70
18782;BMP180;9519;51.890;8.970;2023-08-30T10:29:23;98503.00;;;18.80
18782;BMP180;9519;51.890;8.970;2023-08-30T10:34:32;98499.00;;;18.80
18782;BMP180;9519;51.890;8.970;2023-08-30T10:39:39;98494.00;;;18.90
18782;BMP180;9519;51.890;8.970;2023-08-30T10:44:49;98481.00;;;19.00
18782;BMP180;9519;51.890;8.970;2023-08-30T10:49:53;98486.00;;;19.10
18782;BMP180;9519;51.890;8.970;2023-08-30T10:55:05;98481.00;;;19.20
18782;BMP180;9519;51.890;8.970;2023-08-30T11:00:19;98474.00;;;19.20
18782;BMP180;9519;51.890;8.970;2023-08-30T11:05:24;98452.00;;;19.20
18782;BMP180;9519;51.890;8.970;2023-08-30T11:10:26;98456.00;;;19.40
18782;BMP180;9519;51.890;8.970;2023-08-30T11:15:29;98449.00;;;19.40
18782;BMP180;9519;51.890;8.970;2023-08-30T11:20:32;98439.00;;;19.30
18782;BMP180;9519;51.890;8.970;2023-08-30T11:25:34;98434.00;;;19.30
18782;BMP180;9519;51.890;8.970;2023-08-30T11:30:41;98429.00;;;19.40
18782;BMP180;9519;51.890;8.970;2023-08-30T11:35:43;98432.00;;;19.50
18782;BMP180;9519;51.890;8.970;2023-08-30T11:40:49;98415.00;;;19.50
18782;BMP180;9519;51.890;8.970;2023-08-30T11:45:57;98418.00;;;19.60
18782;BMP180;9519;51.890;8.970;2023-08-30T11:51:00;98396.00;;;19.80
18782;BMP180;9519;51.890;8.970;2023-08-30T11:56:02;98382.00;;;20.00
18782;BMP180;9519;51.890;8.970;2023-08-30T12:01:07;98375.00;;;20.10
18782;BMP180;9519;51.890;8.970;2023-08-30T12:06:10;98363.00;;;20.10
18782;BMP180;9519;51.890;8.970;2023-08-30T12:11:19;98369.00;;;20.20
18782;BMP180;9519;51.890;8.970;2023-08-30T12:16:23;98368.00;;;20.30
18782;BMP180;9519;51.890;8.970;2023-08-30T12:21:25;98347.00;;;20.40
18782;BMP180;9519;51.890;8.970;2023-08-30T12:26:32;98344.00;;;20.50
18782;BMP180;9519;51.890;8.970;2023-08-30T12:31:35;98346.00;;;20.40
18782;BMP180;9519;51.890;8.970;2023-08-30T12:36:38;98342.00;;;20.50
18782;BMP180;9519;51.890;8.970;2023-08-30T12:41:40;98338.00;;;20.60
18782;BMP180;9519;51.890;8.970;2023-08-30T12:46:44;98336.00;;;20.80
18782;BMP180;9519;51.890;8.970;2023-08-30T12:51:47;98330.00;;;20.90
18782;BMP180;9519;51.890;8.970;2023-08-30T12:56:49;98328.00;;;20.90
18782;BMP180;9519;51.890;8.970;2023-08-30T13:01:52;98324.00;;;21.00
18782;BMP180;9519;51.890;8.970;2023-08-30T13:06:54;98321.00;;;21.20
18782;BMP180;9519;51.890;8.970;2023-08-30T13:11:56;98314.00;;;21.10
18782;BMP180;9519;51.890;8.970;2023-08-30T13:17:00;98315.00;;;21.00
18782;BMP180;9519;51.890;8.970;2023-08-30T13:22:02;98322.00;;;20.80
18782;BMP180;9519;51.890;8.970;2023-08-30T13:27:04;98342.00;;;20.60
18782;BMP180;9519;51.890;8.970;2023-08-30T13:32:08;98344.00;;;20.20
18782;BMP180;9519;51.890;8.970;2023-08-30T13:37:10;98349.00;;;20.00
18782;BMP180;9519;51.890;8.970;2023-08-30T13:42:12;98350.00;;;19.80
18782;BMP180;9519;51.890;8.970;2023-08-30T13:47:15;98363.00;;;19.50
18782;BMP180;9519;51.890;8.970;2023-08-30T13:52:17;98366.00;;;19.50
18782;BMP180;9519;51.890;8.970;2023-08-30T13:57:19;98378.00;;;19.40
18782;BMP180;9519;51.890;8.970;2023-08-30T14:02:23;98391.00;;;19.20
18782;BMP180;9519;51.890;8.970;2023-08-30T14:07:25;98417.00;;;19.00
18782;BMP180;9519;51.890;8.970;2023-08-30T14:12:27;98417.00;;;18.90
18782;BMP180;9519;51.890;8.970;2023-08-30T14:17:31;98425.00;;;18.60
18782;BMP180;9519;51.890;8.970;2023-08-30T14:22:33;98449.00;;;18.00
18782;BMP180;9519;51.890;8.970;2023-08-30T14:27:35;98449.00;;;17.60
18782;BMP180;9519;51.890;8.970;2023-08-30T14:32:43;98458.00;;;17.30
18782;BMP180;9519;51.890;8.970;2023-08-30T14:37:45;98465.00;;;17.00
18782;BMP180;9519;51.890;8.970;2023-08-30T14:42:50;98464.00;;;16.70
18782;BMP180;9519;51.890;8.970;2023-08-30T14:47:53;98478.00;;;16.50
18782;BMP180;9519;51.890;8.970;2023-08-30T14:52:55;98481.00;;;16.30
18782;BMP180;9519;51.890;8.970;2023-08-30T14:57:59;98492.00;;;16.00
18782;BMP180;9519;51.890;8.970;2023-08-30T15:03:03;98494.00;;;15.80
18782;BMP180;9519;51.890;8.970;2023-08-30T15:08:06;98488.00;;;15.80
18782;BMP180;9519;51.890;8.970;2023-08-30T15:13:08;98490.00;;;15.70
18782;BMP180;9519;51.890;8.970;2023-08-30T15:18:11;98496.00;;;15.60
18782;BMP180;9519;51.890;8.970;2023-08-30T15:23:14;98492.00;;;15.40
18782;BMP180;9519;51.890;8.970;2023-08-30T15:28:18;98487.00;;;15.30
18782;BMP180;9519;51.890;8.970;2023-08-30T15:33:22;98488.00;;;15.30
18782;BMP180;9519;51.890;8.970;2023-08-30T15:38:25;98483.00;;;15.20
18782;BMP180;9519;51.890;8.970;2023-08-30T15:43:27;98494.00;;;15.10
18782;BMP180;9519;51.890;8.970;2023-08-30T15:48:30;98493.00;;;15.00
18782;BMP180;9519;51.890;8.970;2023-08-30T15:53:34;98506.00;;;14.90
18782;BMP180;9519;51.890;8.970;2023-08-30T15:58:37;98492.00;;;14.70
18782;BMP180;9519;51.890;8.970;2023-08-30T16:03:40;98500.00;;;14.60
18782;BMP180;9519;51.890;8.970;2023-08-30T16:08:42;98500.00;;;14.50
18782;BMP180;9519;51.890;8.970;2023-08-30T16:13:44;98499.00;;;14.40
18782;BMP180;9519;51.890;8.970;2023-08-30T16:18:48;98479.00;;;14.30
18782;BMP180;9519;51.890;8.970;2023-08-30T16:23:50;98479.00;;;14.20
18782;BMP180;9519;51.890;8.970;2023-08-30T16:28:52;98480.00;;;14.10
18782;BMP180;9519;51.890;8.970;2023-08-30T16:33:55;98481.00;;;14.10
18782;BMP180;9519;51.890;8.970;2023-08-30T16:38:57;98490.00;;;14.10
18782;BMP180;9519;51.890;8.970;2023-08-30T16:44:00;98495.00;;;14.00
18782;BMP180;9519;51.890;8.970;2023-08-30T16:49:05;98493.00;;;13.90
18782;BMP180;9519;51.890;8.970;2023-08-30T16:54:09;98493.00;;;13.80
18782;BMP180;9519;51.890;8.970;2023-08-30T16:59:11;98496.00;;;13.80
18782;BMP180;9519;51.890;8.970;2023-08-30T17:04:14;98488.00;;;13.80
18782;BMP180;9519;51.890;8.970;2023-08-30T17:09:16;98490.00;;;13.80
18782;BMP180;9519;51.890;8.970;2023-08-30T17:14:18;98498.00;;;13.80
18782;BMP180;9519;51.890;8.970;2023-08-30T17:19:22;98502.00;;;13.80
18782;BMP180;9519;51.890;8.970;2023-08-30T17:24:24;98511.00;;;13.80
18782;BMP180;9519;51.890;8.970;2023-08-30T17:29:26;98542.00;;;13.80
18782;BMP180;9519;51.890;8.970;2023-08-30T17:34:30;98530.00;;;13.80
18782;BMP180;9519;51.890;8.970;2023-08-30T17:39:32;98504.00;;;13.80
18782;BMP180;9519;51.890;8.970;2023-08-30T17:44:36;98524.00;;;13.80
18782;BMP180;9519;51.890;8.970;2023-08-30T17:49:40;98518.00;;;13.80
18782;BMP180;9519;51.890;8.970;2023-08-30T17:54:42;98491.00;;;13.70
18782;BMP180;9519;51.890;8.970;2023-08-30T17:59:44;98494.00;;;13.70
18782;BMP180;9519;51.890;8.970;2023-08-30T18:04:47;98508.00;;;13.70
18782;BMP180;9519;51.890;8.970;2023-08-30T18:09:50;98486.00;;;13.70
18782;BMP180;9519;51.890;8.970;2023-08-30T18:14:52;98479.00;;;13.70
18782;BMP180;9519;51.890;8.970;2023-08-30T18:20:01;98477.00;;;13.80
18782;BMP180;9519;51.890;8.970;2023-08-30T18:25:07;98474.00;;;13.80
18782;BMP180;9519;51.890;8.970;2023-08-30T18:30:11;98478.00;;;13.80
18782;BMP180;9519;51.890;8.970;2023-08-30T18:35:15;98481.00;;;13.80
18782;BMP180;9519;51.890;8.970;2023-08-30T18:40:17;98466.00;;;13.80
18782;BMP180;9519;51.890;8.970;2023-08-30T18:45:19;98475.00;;;13.80
18782;BMP180;9519;51.890;8.970;2023-08-30T18:50:25;98473.00;;;13.80
18782;BMP180;9519;51.890;8.970;2023-08-30T18:55:27;98486.00;;;13.80
18782;BMP180;9519;51.890;8.970;2023-08-30T19:00:33;98489.00;;;13.70
18782;BMP180;9519;51.890;8.970;2023-08-30T19:05:37;98504.00;;;13.70
18782;BMP180;9519;51.890;8.970;2023-08-30T19:10:41;98504.00;;;13.60
18782;BMP180;9519;51.890;8.970;2023-08-30T19:15:44;98500.00;;;13.50
18782;BMP180;9519;51.890;8.970;2023-08-30T19:20:54;98519.00;;;13.40
18782;BMP180;9519;51.890;8.970;2023-08-30T19:26:38;98539.00;;;13.30
18782;BMP180;9519;51.890;8.970;2023-08-30T19:31:41;98538.00;;;13.20
18782;BMP180;9519;51.890;8.970;2023-08-30T19:36:45;98548.00;;;13.20
18782;BMP180;9519;51.890;8.970;2023-08-30T19:41:47;98534.00;;;13.20
18782;BMP180;9519;51.890;8.970;2023-08-30T19:46:49;98526.00;;;13.10
18782;BMP180;9519;51.890;8.970;2023-08-30T19:51:52;98539.00;;;13.10
18782;BMP180;9519;51.890;8.970;2023-08-30T19:56:54;98550.00;;;13.10
18782;BMP180;9519;51.890;8.970;2023-08-30T20:01:58;98567.00;;;13.10
18782;BMP180;9519;51.890;8.970;2023-08-30T20:07:05;98559.00;;;13.10
18782;BMP180;9519;51.890;8.970;2023-08-30T20:12:07;98556.00;;;13.10
18782;BMP180;9519;51.890;8.970;2023-08-30T20:17:09;98560.00;;;13.10
18782;BMP180;9519;51.890;8.970;2023-08-30T20:29:01;98568.00;;;13.10
18782;BMP180;9519;51.890;8.970;2023-08-30T20:34:03;98577.00;;;13.10
18782;BMP180;9519;51.890;8.970;2023-08-30T20:39:35;98579.00;;;13.00
18782;BMP180;9519;51.890;8.970;2023-08-30T20:45:11;98573.00;;;12.90
18782;BMP180;9519;51.890;8.970;2023-08-30T20:50:13;98568.00;;;12.90
18782;BMP180;9519;51.890;8.970;2023-08-30T20:55:17;98568.00;;;12.90
18782;BMP180;9519;51.890;8.970;2023-08-30T21:00:21;98570.00;;;12.80
18782;BMP180;9519;51.890;8.970;2023-08-30T21:06:05;98570.00;;;12.90
18782;BMP180;9519;51.890;8.970;2023-08-30T21:11:10;98570.00;;;12.90
18782;BMP180;9519;51.890;8.970;2023-08-30T21:16:15;98568.00;;;12.90
18782;BMP180;9519;51.890;8.970;2023-08-30T21:21:17;98580.00;;;12.90
18782;BMP180;9519;51.890;8.970;2023-08-30T21:26:19;98595.00;;;12.90
18782;BMP180;9519;51.890;8.970;2023-08-30T21:31:22;98577.00;;;12.90
18782;BMP180;9519;51.890;8.970;2023-08-30T21:36:24;98574.00;;;12.80
18782;BMP180;9519;51.890;8.970;2023-08-30T21:41:26;98577.00;;;12.70
18782;BMP180;9519;51.890;8.970;2023-08-30T21:46:30;98581.00;;;12.70
18782;BMP180;9519;51.890;8.970;2023-08-30T21:51:32;98582.00;;;12.70
18782;BMP180;9519;51.890;8.970;2023-08-30T21:56:36;98589.00;;;12.60
18782;BMP180;9519;51.890;8.970;2023-08-30T22:01:40;98580.00;;;12.50
18782;BMP180;9519;51.890;8.970;2023-08-30T22:06:42;98594.00;;;12.50
18782;BMP180;9519;51.890;8.970;2023-08-30T22:11:44;98593.00;;;12.50
18782;BMP180;9519;51.890;8.970;2023-08-30T22:16:47;98592.00;;;12.50
18782;BMP180;9519;51.890;8.970;2023-08-30T22:21:51;98593.00;;;12.50
18782;BMP180;9519;51.890;8.970;2023-08-30T22:26:53;98589.00;;;12.50
18782;BMP180;9519;51.890;8.970;2023-08-30T22:31:56;98598.00;;;12.50
18782;BMP180;9519;51.890;8.970;2023-08-30T22:36:58;98597.00;;;12.60
18782;BMP180;9519;51.890;8.970;2023-08-30T22:42:00;98587.00;;;12.60
18782;BMP180;9519;51.890;8.970;2023-08-30T22:47:04;98578.00;;;12.50
18782;BMP180;9519;51.890;8.970;2023-08-30T22:52:06;98581.00;;;12.50
18782;BMP180;9519;51.890;8.970;2023-08-30T22:57:09;98584.00;;;12.40
18782;BMP180;9519;51.890;8.970;2023-08-30T23:02:12;98584.00;;;12.30
18782;BMP180;9519;51.890;8.970;2023-08-30T23:07:14;98588.00;;;12.30
18782;BMP180;9519;51.890;8.970;2023-08-30T23:12:16;98592.00;;;12.30
18782;BMP180;9519;51.890;8.970;2023-08-30T23:17:20;98581.00;;;12.20
18782;BMP180;9519;51.890;8.970;2023-08-30T23:22:22;98574.00;;;12.20
18782;BMP180;9519;51.890;8.970;2023-08-30T23:27:25;98580.00;;;12.20
18782;BMP180;9519;51.890;8.970;2023-08-30T23:32:30;98592.00;;;12.20
18782;BMP180;9519;51.890;8.970;2023-08-30T23:37:32;98589.00;;;12.10
18782;BMP180;9519;51.890;8.970;2023-08-30T23:42:34;98584.00;;;12.10
18782;BMP180;9519;51.890;8.970;2023-08-30T23:47:37;98590.00;;;12.10
18782;BMP180;9519;51.890;8.970;2023-08-30T23:52:39;98604.00;;;12.00
18782;BMP180;9519;51.890;8.970;2023-08-30T23:57:41;98609.00;;;12.00
